createdAt,value
2022-12-16T00:02:23.153Z,9.00
2022-12-16T00:05:09.365Z,9.40
2022-12-16T00:07:55.472Z,10.30
2022-12-16T00:10:54.912Z,10.00
2022-12-16T00:13:41.037Z,8.07
2022-12-16T00:16:27.168Z,8.77
2022-12-16T00:19:12.802Z,8.75
2022-12-16T00:21:58.936Z,8.30
2022-12-16T00:24:44.710Z,9.90
2022-12-16T00:27:30.681Z,8.57
2022-12-16T00:30:16.583Z,9.05
2022-12-16T00:33:02.099Z,7.15
2022-12-16T00:35:48.583Z,6.95
2022-12-16T00:38:34.674Z,8.48
2022-12-16T00:41:20.115Z,8.57
2022-12-16T00:44:05.822Z,11.88
2022-12-16T00:46:51.428Z,9.63
2022-12-16T00:49:37.853Z,8.35
2022-12-16T00:52:24.015Z,9.30
2022-12-16T00:55:10.427Z,9.82
2022-12-16T00:57:56.362Z,9.98
2022-12-16T01:00:42.428Z,8.30
2022-12-16T01:03:28.779Z,8.57
2022-12-16T01:06:16.623Z,14.02
2022-12-16T01:09:02.029Z,7.45
2022-12-16T01:11:48.432Z,8.23
2022-12-16T01:14:33.895Z,7.72
2022-12-16T01:17:19.698Z,8.73
2022-12-16T01:20:06.133Z,7.43
2022-12-16T01:22:51.549Z,7.07
2022-12-16T01:25:38.097Z,10.02
2022-12-16T01:28:23.940Z,8.43
2022-12-16T01:31:09.375Z,11.02
2022-12-16T01:33:55.077Z,8.45
2022-12-16T01:36:40.654Z,7.10
2022-12-16T01:39:27.438Z,7.20
2022-12-16T01:42:14.160Z,10.00
2022-12-16T01:45:25.281Z,9.73
2022-12-16T01:48:32.585Z,7.68
2022-12-16T01:51:26.672Z,7.68
2022-12-16T01:54:15.368Z,7.22
2022-12-16T01:57:08.791Z,6.20
2022-12-16T01:59:55.780Z,7.32
2022-12-16T02:02:44.255Z,6.95
2022-12-16T02:05:30.915Z,6.18
2022-12-16T02:08:18.809Z,7.13
2022-12-16T02:11:28.352Z,7.32
2022-12-16T02:14:55.474Z,7.72
2022-12-16T02:18:02.575Z,7.40
2022-12-16T02:21:06.280Z,6.90
2022-12-16T02:24:29.397Z,8.77
2022-12-16T02:27:17.809Z,8.05
2022-12-16T02:30:24.860Z,7.30
2022-12-16T02:33:35.994Z,7.53
2022-12-16T02:36:48.365Z,7.32
2022-12-16T02:39:38.600Z,5.97
2022-12-16T02:42:41.486Z,6.88
2022-12-16T02:45:30.747Z,8.55
2022-12-16T02:48:16.972Z,6.55
2022-12-16T02:51:02.642Z,6.53
2022-12-16T02:53:50.132Z,6.95
2022-12-16T02:56:58.731Z,7.15
2022-12-16T03:00:04.170Z,6.57
2022-12-16T03:02:59.034Z,7.15
2022-12-16T03:05:50.356Z,5.63
2022-12-16T03:08:40.961Z,7.55
2022-12-16T03:11:30.066Z,6.47
2022-12-16T03:14:18.510Z,6.97
2022-12-16T03:17:04.685Z,6.50
2022-12-16T03:19:57.335Z,7.38
2022-12-16T03:22:46.628Z,6.47
2022-12-16T03:25:35.965Z,6.53
2022-12-16T03:28:36.899Z,5.68
2022-12-16T03:31:37.566Z,6.95
2022-12-16T03:35:07.494Z,7.35
2022-12-16T03:37:56.638Z,8.55
2022-12-16T03:40:44.205Z,6.90
2022-12-16T03:43:30.532Z,6.28
2022-12-16T03:46:17.426Z,6.57
2022-12-16T03:49:03.053Z,7.50
2022-12-16T03:51:48.672Z,6.63
2022-12-16T03:54:34.783Z,6.90
2022-12-16T03:57:20.365Z,8.60
2022-12-16T04:00:06.729Z,7.80
2022-12-16T04:02:57.823Z,7.53
2022-12-16T04:05:45.672Z,8.82
2022-12-16T04:08:31.764Z,7.50
2022-12-16T04:11:36.597Z,7.38
2022-12-16T04:14:40.724Z,8.57
2022-12-16T04:17:52.878Z,8.13
2022-12-16T04:21:00.932Z,10.23
2022-12-16T04:24:08.950Z,8.20
2022-12-16T04:27:15.653Z,8.48
2022-12-16T04:30:19.909Z,9.35
2022-12-16T04:33:30.711Z,12.48
2022-12-16T04:36:34.916Z,10.45
2022-12-16T04:39:39.166Z,9.38
2022-12-16T04:42:43.475Z,12.38
2022-12-16T04:45:47.667Z,14.38
2022-12-16T04:48:52.288Z,17.05
2022-12-16T04:51:57.086Z,15.88
2022-12-16T04:55:00.905Z,15.10
2022-12-16T04:58:12.486Z,16.50
2022-12-16T05:01:17.963Z,17.48
2022-12-16T05:04:22.380Z,17.73
2022-12-16T05:07:26.360Z,20.45
2022-12-16T05:10:30.598Z,19.65
2022-12-16T05:13:34.840Z,17.58
2022-12-16T05:16:39.749Z,20.42
2022-12-16T05:19:43.797Z,20.65
2022-12-16T05:22:48.258Z,20.88
2022-12-16T05:25:52.205Z,19.77
2022-12-16T05:28:56.252Z,21.67
2022-12-16T05:32:00.219Z,23.40
2022-12-16T05:35:04.777Z,20.63
2022-12-16T05:38:08.885Z,20.42
2022-12-16T05:41:12.823Z,18.65
2022-12-16T05:44:17.340Z,16.70
2022-12-16T05:47:21.716Z,17.83
2022-12-16T05:50:26.420Z,23.80
2022-12-16T05:53:45.625Z,20.63
2022-12-16T05:56:50.140Z,20.33
2022-12-16T05:59:54.119Z,36.22
2022-12-16T06:02:58.245Z,26.20
2022-12-16T06:06:02.321Z,24.55
2022-12-16T06:09:06.289Z,19.92
2022-12-16T06:12:10.885Z,20.42
2022-12-16T06:15:15.117Z,24.80
2022-12-16T06:18:19.408Z,26.15
2022-12-16T06:21:23.514Z,19.38
2022-12-16T06:24:28.383Z,22.08
2022-12-16T06:27:32.815Z,20.00
2022-12-16T06:30:37.100Z,23.10
2022-12-16T06:33:41.713Z,20.48
2022-12-16T06:36:45.845Z,22.98
2022-12-16T06:39:53.091Z,20.42
2022-12-16T06:43:00.129Z,18.60
2022-12-16T06:46:04.372Z,17.90
2022-12-16T06:49:09.195Z,19.30
2022-12-16T06:52:13.443Z,21.92
2022-12-16T06:55:17.874Z,20.13
2022-12-16T06:58:22.116Z,18.25
2022-12-16T07:01:26.357Z,26.25
2022-12-16T07:04:31.610Z,22.92
2022-12-16T07:07:36.203Z,23.58
2022-12-16T07:10:40.225Z,25.27
2022-12-16T07:13:44.213Z,19.08
2022-12-16T07:16:50.166Z,26.17
2022-12-16T07:19:56.120Z,19.30
2022-12-16T07:23:11.838Z,17.95
2022-12-16T07:26:17.989Z,19.00
2022-12-16T07:29:22.534Z,21.60
2022-12-16T07:32:26.901Z,20.80
2022-12-16T07:35:31.120Z,23.27
2022-12-16T07:38:35.768Z,21.23
2022-12-16T07:41:40.426Z,20.20
2022-12-16T07:44:44.519Z,22.15
2022-12-16T07:47:49.250Z,22.42
2022-12-16T07:50:54.712Z,21.15
2022-12-16T07:54:00.734Z,20.10
2022-12-16T07:57:04.693Z,21.95
2022-12-16T08:00:09.140Z,18.45
2022-12-16T08:03:19.630Z,16.52
2022-12-16T08:06:24.104Z,16.45
2022-12-16T08:09:28.111Z,17.65
2022-12-16T08:12:33.094Z,18.85
2022-12-16T08:15:37.397Z,18.33
2022-12-16T08:18:41.682Z,17.80
2022-12-16T08:21:46.667Z,19.10
2022-12-16T08:24:53.443Z,19.10
2022-12-16T08:28:00.891Z,23.08
2022-12-16T08:31:09.120Z,19.92
2022-12-16T08:34:13.402Z,17.25
2022-12-16T08:37:18.305Z,23.48
2022-12-16T08:40:35.312Z,22.35
2022-12-16T08:43:41.251Z,21.63
2022-12-16T08:46:46.550Z,26.00
2022-12-16T08:49:52.552Z,19.75
2022-12-16T08:52:58.860Z,22.90
2022-12-16T08:56:02.821Z,18.90
2022-12-16T08:59:06.702Z,18.35
2022-12-16T09:02:11.511Z,16.70
2022-12-16T09:05:16.436Z,17.50
2022-12-16T09:08:22.297Z,15.85
2022-12-16T09:11:26.879Z,16.02
2022-12-16T09:14:30.999Z,16.00
2022-12-16T09:17:35.393Z,15.82
2022-12-16T09:20:39.529Z,16.98
2022-12-16T09:26:48.847Z,24.15
2022-12-16T09:29:54.025Z,14.73
2022-12-16T09:33:02.553Z,15.13
2022-12-16T09:36:06.565Z,16.55
2022-12-16T09:39:11.080Z,16.42
2022-12-16T09:42:33.943Z,14.10
2022-12-16T09:46:22.086Z,13.15
2022-12-16T09:49:29.619Z,18.77
2022-12-16T09:52:36.223Z,15.55
2022-12-16T09:55:56.970Z,19.02
2022-12-16T09:59:14.576Z,18.30
2022-12-16T10:02:19.951Z,16.85
2022-12-16T10:05:34.203Z,15.25
2022-12-16T10:08:54.162Z,14.55
2022-12-16T10:12:10.540Z,17.70
2022-12-16T10:15:28.682Z,17.48
2022-12-16T10:18:47.454Z,16.48
2022-12-16T10:22:01.546Z,19.15
2022-12-16T10:25:39.481Z,16.20
2022-12-16T10:29:03.197Z,15.45
2022-12-16T10:32:07.741Z,19.48
2022-12-16T10:35:14.188Z,16.90
2022-12-16T10:38:18.989Z,14.38
2022-12-16T10:41:23.914Z,15.35
2022-12-16T10:44:55.717Z,19.35
2022-12-16T10:47:59.886Z,14.38
2022-12-16T10:51:06.148Z,17.33
2022-12-16T10:54:22.890Z,15.02
2022-12-16T10:57:36.409Z,16.45
2022-12-16T11:00:57.018Z,15.93
2022-12-16T11:04:01.904Z,15.77
2022-12-16T11:07:06.245Z,16.00
2022-12-16T11:10:11.046Z,17.48
2022-12-16T11:13:36.506Z,18.33
2022-12-16T11:16:47.141Z,17.17
2022-12-16T11:19:51.438Z,17.95
2022-12-16T11:22:55.466Z,19.10
2022-12-16T11:26:00.620Z,17.73
2022-12-16T11:29:05.386Z,19.70
2022-12-16T11:32:17.909Z,19.23
2022-12-16T11:35:25.048Z,16.80
2022-12-16T11:38:40.556Z,18.50
2022-12-16T11:41:54.721Z,22.13
2022-12-16T11:45:07.404Z,19.08
2022-12-16T11:48:16.569Z,19.23
2022-12-16T11:51:21.960Z,20.50
2022-12-16T11:54:35.781Z,21.92
2022-12-16T11:57:59.488Z,22.35
2022-12-16T12:01:13.499Z,21.20
2022-12-16T12:04:18.320Z,27.33
2022-12-16T12:07:44.831Z,26.10
2022-12-16T12:11:13.632Z,32.60
2022-12-16T12:14:52.227Z,27.58
2022-12-16T12:18:36.266Z,29.48
2022-12-16T12:21:43.567Z,26.88
2022-12-16T12:24:59.941Z,34.15
2022-12-16T12:28:11.955Z,27.40
2022-12-16T12:31:54.115Z,26.00
2022-12-16T12:35:23.773Z,26.35
2022-12-16T12:38:56.432Z,27.70
2022-12-16T12:42:10.576Z,27.75
2022-12-16T12:45:20.745Z,28.63
2022-12-16T12:48:45.613Z,29.98
2022-12-16T12:52:11.932Z,27.77
2022-12-16T12:55:40.127Z,26.75
2022-12-16T12:58:45.412Z,26.75
2022-12-16T13:01:53.162Z,26.60
2022-12-16T13:04:58.570Z,28.10
2022-12-16T13:08:03.204Z,24.05
2022-12-16T13:11:07.806Z,26.63
2022-12-16T13:14:13.835Z,31.63
2022-12-16T13:17:25.146Z,27.48
2022-12-16T13:20:52.236Z,26.80
2022-12-16T13:23:58.931Z,26.80
2022-12-16T13:27:20.216Z,25.88
2022-12-16T13:30:45.716Z,26.60
2022-12-16T13:33:50.905Z,27.02
2022-12-16T13:36:55.815Z,24.92
2022-12-16T13:40:02.196Z,26.75
2022-12-16T13:43:06.606Z,21.95
2022-12-16T13:46:32.329Z,25.23
2022-12-16T13:49:54.774Z,23.50
2022-12-16T13:52:59.542Z,21.65
2022-12-16T13:56:14.775Z,24.83
2022-12-16T13:59:23.895Z,23.92
2022-12-16T14:02:58.839Z,24.08
2022-12-16T14:06:03.891Z,21.95
2022-12-16T14:09:08.462Z,23.80
2022-12-16T14:12:23.140Z,27.48
2022-12-16T14:15:45.672Z,24.50
2022-12-16T14:19:11.834Z,23.73
2022-12-16T14:22:23.143Z,23.55
2022-12-16T14:25:40.061Z,31.70
2022-12-16T14:28:48.596Z,25.83
2022-12-16T14:32:01.019Z,26.17
2022-12-16T14:35:05.373Z,22.73
2022-12-16T14:38:09.425Z,22.40
2022-12-16T14:41:13.780Z,28.23
2022-12-16T14:44:18.243Z,24.65
2022-12-16T14:47:22.761Z,23.70
2022-12-16T14:50:48.314Z,21.88
2022-12-16T14:53:58.363Z,26.42
2022-12-16T14:57:02.806Z,28.58
2022-12-16T15:00:07.892Z,26.25
2022-12-16T15:03:38.530Z,24.73
2022-12-16T15:06:58.093Z,25.60
2022-12-16T15:10:06.827Z,27.73
2022-12-16T15:13:11.540Z,24.05
2022-12-16T15:16:16.767Z,21.58
2022-12-16T15:19:21.424Z,21.58
2022-12-16T15:22:31.266Z,24.30
2022-12-16T15:25:41.569Z,24.80
2022-12-16T15:28:58.153Z,22.63
2022-12-16T15:32:03.917Z,39.25
2022-12-16T15:35:08.439Z,27.25
2022-12-16T15:38:13.246Z,27.05
2022-12-16T15:41:18.073Z,31.30
2022-12-16T15:44:22.474Z,27.65
2022-12-16T15:47:40.300Z,27.42
2022-12-16T15:50:47.510Z,28.38
2022-12-16T15:54:49.527Z,28.25
2022-12-16T15:57:56.528Z,34.40
2022-12-16T16:01:16.103Z,31.38
2022-12-16T16:04:20.826Z,26.73
2022-12-16T16:07:40.154Z,24.15
2022-12-16T16:10:44.842Z,31.20
2022-12-16T16:13:49.147Z,31.33
2022-12-16T16:16:53.359Z,30.77
2022-12-16T16:20:03.019Z,49.42
2022-12-16T16:23:08.289Z,30.67
2022-12-16T16:26:13.028Z,41.72
2022-12-16T16:29:17.277Z,32.92
2022-12-16T16:32:24.017Z,33.13
2022-12-16T16:35:27.983Z,30.13
2022-12-16T16:38:32.520Z,29.00
2022-12-16T16:41:37.057Z,29.60
2022-12-16T16:44:40.969Z,27.27
2022-12-16T16:47:44.958Z,26.25
2022-12-16T16:50:48.899Z,29.13
2022-12-16T16:53:53.186Z,36.30
2022-12-16T16:56:57.485Z,32.88
2022-12-16T17:00:02.556Z,31.50
2022-12-16T17:03:06.627Z,30.48
2022-12-16T17:06:11.693Z,33.00
2022-12-16T17:09:16.679Z,33.40
2022-12-16T17:12:28.377Z,34.33
2022-12-16T17:16:00.581Z,30.85
2022-12-16T17:19:05.717Z,30.13
2022-12-16T17:22:11.107Z,37.58
2022-12-16T17:25:16.427Z,34.75
2022-12-16T17:28:28.228Z,42.25
2022-12-16T17:31:32.973Z,40.53
2022-12-16T17:34:37.779Z,46.20
2022-12-16T17:37:42.578Z,39.67
2022-12-16T17:40:48.497Z,40.20
2022-12-16T17:43:52.408Z,33.17
2022-12-16T17:46:56.479Z,32.90
2022-12-16T17:50:00.679Z,36.33
2022-12-16T17:53:05.055Z,35.45
2022-12-16T17:56:09.240Z,40.60
2022-12-16T17:59:59.466Z,35.10
2022-12-16T18:03:03.860Z,33.17
2022-12-16T18:06:13.874Z,37.17
2022-12-16T18:09:22.577Z,37.17
2022-12-16T18:12:27.330Z,44.83
2022-12-16T18:15:32.391Z,42.50
2022-12-16T18:18:46.010Z,36.60
2022-12-16T18:21:51.705Z,37.25
2022-12-16T18:24:55.927Z,35.53
2022-12-16T18:28:00.043Z,29.40
2022-12-16T18:31:04.087Z,29.02
2022-12-16T18:34:08.713Z,30.25
2022-12-16T18:37:12.669Z,31.92
2022-12-16T18:40:18.090Z,35.40
2022-12-16T18:43:23.379Z,33.97
2022-12-16T18:46:27.227Z,35.58
2022-12-16T18:49:31.803Z,35.75
2022-12-16T18:52:37.360Z,33.08
2022-12-16T18:55:42.364Z,40.47
2022-12-16T18:58:53.321Z,37.15
2022-12-16T19:01:58.131Z,37.72
2022-12-16T19:05:02.196Z,32.75
2022-12-16T19:08:11.141Z,30.17
2022-12-16T19:11:18.456Z,33.55
2022-12-16T19:14:22.488Z,36.08
2022-12-16T19:17:28.647Z,32.10
2022-12-16T19:20:33.334Z,34.33
2022-12-16T19:23:38.022Z,32.13
2022-12-16T19:26:42.471Z,35.13
2022-12-16T19:29:46.409Z,34.13
2022-12-16T19:32:57.899Z,36.50
2022-12-16T19:36:02.497Z,42.55
2022-12-16T19:39:07.122Z,36.35
2022-12-16T19:42:10.970Z,39.08
2022-12-16T19:45:15.622Z,36.78
2022-12-16T19:48:24.044Z,32.80
2022-12-16T19:51:28.316Z,38.22
2022-12-16T19:54:32.521Z,36.67
2022-12-16T19:57:41.152Z,36.55
2022-12-16T20:00:46.045Z,32.53
2022-12-16T20:03:52.361Z,38.63
2022-12-16T20:07:01.085Z,36.90
2022-12-16T20:10:05.033Z,33.85
2022-12-16T20:13:09.419Z,39.20
2022-12-16T20:16:23.275Z,48.05
2022-12-16T20:19:27.613Z,50.72
2022-12-16T20:22:31.669Z,54.05
2022-12-16T20:25:36.109Z,51.42
2022-12-16T20:28:40.154Z,55.17
2022-12-16T20:31:44.777Z,53.30
2022-12-16T20:34:48.627Z,51.88
2022-12-16T20:37:53.414Z,51.22
2022-12-16T20:41:00.398Z,52.10
2022-12-16T20:44:09.381Z,54.65
2022-12-16T20:47:13.443Z,46.40
2022-12-16T20:50:17.424Z,44.63
2022-12-16T20:53:21.519Z,47.92
2022-12-16T20:56:26.000Z,49.92
2022-12-16T20:59:30.214Z,44.17
2022-12-16T21:02:35.612Z,52.28
2022-12-16T21:05:40.844Z,42.72
2022-12-16T21:08:46.122Z,50.58
2022-12-16T21:11:50.356Z,46.42
2022-12-16T21:14:55.068Z,58.83
2022-12-16T21:18:00.607Z,55.58
2022-12-16T21:21:11.253Z,48.65
2022-12-16T21:24:17.681Z,41.42
2022-12-16T21:27:21.858Z,40.78
2022-12-16T21:30:26.489Z,39.42
2022-12-16T21:33:56.557Z,43.10
2022-12-16T21:37:00.769Z,40.95
2022-12-16T21:40:05.764Z,38.53
2022-12-16T21:43:10.219Z,38.00
2022-12-16T21:46:14.357Z,39.38
2022-12-16T21:49:18.521Z,39.60
2022-12-16T21:52:23.073Z,35.45
2022-12-16T21:55:28.099Z,35.35
2022-12-16T21:58:32.241Z,35.13
2022-12-16T22:01:36.412Z,42.72
2022-12-16T22:04:40.243Z,36.83
2022-12-16T22:07:46.549Z,34.17
2022-12-16T22:10:50.992Z,37.10
2022-12-16T22:13:56.509Z,35.58
2022-12-16T22:17:05.528Z,37.47
2022-12-16T22:20:10.781Z,38.22
2022-12-16T22:23:14.740Z,39.03
2022-12-16T22:26:19.960Z,38.72
2022-12-16T22:29:24.419Z,38.85
2022-12-16T22:32:29.114Z,39.30
2022-12-16T22:35:33.078Z,41.30
2022-12-16T22:38:37.375Z,39.70
2022-12-16T22:41:41.572Z,38.08
2022-12-16T22:44:45.470Z,37.45
2022-12-16T22:47:50.130Z,36.42
2022-12-16T22:50:54.178Z,41.20
2022-12-16T22:54:00.975Z,34.00
2022-12-16T22:57:04.993Z,34.42
2022-12-16T23:00:09.066Z,36.10
2022-12-16T23:03:16.228Z,39.30
2022-12-16T23:06:20.928Z,39.75
2022-12-16T23:09:25.221Z,39.47
2022-12-16T23:12:34.280Z,34.58
2022-12-16T23:15:38.668Z,40.33
2022-12-16T23:18:43.080Z,36.88
2022-12-16T23:21:47.602Z,40.40
2022-12-16T23:24:51.763Z,40.88
2022-12-16T23:27:56.125Z,38.53
2022-12-16T23:31:00.802Z,36.53
2022-12-16T23:34:05.092Z,35.45
2022-12-16T23:37:09.228Z,37.55
2022-12-16T23:40:13.957Z,42.65
2022-12-16T23:43:18.605Z,38.92
2022-12-16T23:46:23.419Z,39.97
2022-12-16T23:49:27.218Z,34.33
2022-12-16T23:52:31.707Z,37.47
2022-12-16T23:55:35.701Z,33.78
2022-12-16T23:58:39.973Z,33.25
